createdAt,value
2022-10-28T00:01:03.819Z,99.90
2022-10-28T00:03:33.865Z,99.90
2022-10-28T00:06:05.631Z,99.90
2022-10-28T00:08:34.088Z,99.90
2022-10-28T00:11:07.034Z,99.90
2022-10-28T00:13:35.829Z,99.90
2022-10-28T00:16:09.335Z,99.90
2022-10-28T00:18:39.455Z,99.90
2022-10-28T00:21:09.739Z,99.90
2022-10-28T00:23:37.688Z,99.90
2022-10-28T00:26:07.775Z,99.90
2022-10-28T00:28:35.925Z,99.90
2022-10-28T00:31:08.410Z,99.90
2022-10-28T00:33:38.651Z,99.90
2022-10-28T00:36:12.123Z,99.90
2022-10-28T00:38:40.511Z,99.90
2022-10-28T00:41:09.492Z,99.90
2022-10-28T00:43:39.850Z,99.90
2022-10-28T00:46:17.305Z,99.90
2022-10-28T00:48:50.430Z,99.90
2022-10-28T00:51:22.039Z,99.90
2022-10-28T00:53:52.015Z,99.90
2022-10-28T00:56:20.862Z,99.90
2022-10-28T00:58:50.993Z,99.90
2022-10-28T01:01:18.967Z,99.90
2022-10-28T01:03:48.809Z,99.90
2022-10-28T01:06:17.417Z,99.90
2022-10-28T01:08:45.357Z,99.90
2022-10-28T01:11:45.974Z,99.90
2022-10-28T01:14:22.917Z,99.90
2022-10-28T01:17:04.419Z,99.90
2022-10-28T01:20:11.371Z,99.90
2022-10-28T01:22:49.035Z,99.90
2022-10-28T01:26:00.317Z,99.90
2022-10-28T01:29:00.997Z,99.90
2022-10-28T01:31:38.931Z,99.90
2022-10-28T01:34:16.877Z,99.90
2022-10-28T01:36:55.790Z,99.90
2022-10-28T01:39:32.281Z,99.90
2022-10-28T01:42:10.038Z,99.90
2022-10-28T01:44:57.101Z,99.90
2022-10-28T01:47:29.664Z,99.90
2022-10-28T01:50:00.968Z,99.90
2022-10-28T01:52:31.327Z,99.90
2022-10-28T01:55:04.142Z,99.90
2022-10-28T01:57:34.107Z,99.90
2022-10-28T02:00:03.698Z,99.90
2022-10-28T02:02:35.556Z,99.90
2022-10-28T02:05:28.346Z,99.90
2022-10-28T02:08:02.626Z,99.90
2022-10-28T02:10:37.904Z,99.90
2022-10-28T02:13:13.334Z,99.90
2022-10-28T02:15:47.684Z,99.90
2022-10-28T02:18:28.207Z,99.90
2022-10-28T02:21:00.811Z,99.90
2022-10-28T02:23:40.212Z,99.90
2022-10-28T02:26:15.777Z,99.90
2022-10-28T02:28:51.154Z,99.90
2022-10-28T02:31:24.829Z,99.90
2022-10-28T02:34:09.615Z,99.90
2022-10-28T02:36:41.641Z,99.90
2022-10-28T02:39:09.940Z,99.90
2022-10-28T02:41:43.572Z,99.90
2022-10-28T02:44:15.737Z,99.90
2022-10-28T02:46:46.174Z,99.90
2022-10-28T02:49:16.593Z,99.90
2022-10-28T02:51:47.465Z,99.90
2022-10-28T02:54:18.346Z,99.90
2022-10-28T02:56:53.417Z,99.90
2022-10-28T02:59:21.448Z,99.90
2022-10-28T03:01:49.448Z,99.90
2022-10-28T03:04:18.814Z,99.90
2022-10-28T03:06:46.774Z,99.90
2022-10-28T03:09:14.890Z,99.90
2022-10-28T03:11:42.862Z,99.90
2022-10-28T03:14:13.251Z,99.90
2022-10-28T03:16:43.303Z,99.90
2022-10-28T03:19:11.231Z,99.90
2022-10-28T03:21:40.491Z,99.90
2022-10-28T03:24:08.651Z,99.90
2022-10-28T03:26:36.619Z,99.90
2022-10-28T03:29:04.652Z,99.90
2022-10-28T03:31:32.596Z,99.90
2022-10-28T03:34:00.524Z,99.90
2022-10-28T03:36:28.536Z,99.90
2022-10-28T03:38:57.828Z,99.90
2022-10-28T03:41:25.935Z,99.90
2022-10-28T03:43:53.867Z,99.90
2022-10-28T03:46:21.803Z,99.90
2022-10-28T03:48:49.692Z,99.90
2022-10-28T03:51:17.772Z,99.90
2022-10-28T03:53:45.711Z,99.80
2022-10-28T03:56:15.024Z,97.90
2022-10-28T03:58:43.084Z,96.80
2022-10-28T04:01:11.257Z,95.50
2022-10-28T04:03:39.675Z,94.20
2022-10-28T04:06:09.907Z,93.30
2022-10-28T04:08:37.941Z,91.40
2022-10-28T04:11:06.255Z,90.60
2022-10-28T04:13:35.889Z,88.90
2022-10-28T04:16:03.899Z,88.10
2022-10-28T04:18:31.926Z,88.00
2022-10-28T04:20:59.880Z,86.00
2022-10-28T04:23:27.837Z,85.20
2022-10-28T04:25:56.046Z,85.00
2022-10-28T04:28:30.144Z,85.30
2022-10-28T04:30:59.433Z,85.50
2022-10-28T04:33:27.347Z,87.30
2022-10-28T04:35:55.424Z,89.20
2022-10-28T04:40:58.242Z,90.30
2022-10-28T04:43:26.209Z,90.40
2022-10-28T04:45:54.162Z,90.70
2022-10-28T04:48:23.677Z,90.60
2022-10-28T04:50:53.390Z,90.50
2022-10-28T04:53:21.377Z,89.90
2022-10-28T04:55:49.348Z,89.70
2022-10-28T04:58:17.414Z,89.30
2022-10-28T05:00:45.468Z,88.90
2022-10-28T05:03:13.446Z,88.50
2022-10-28T05:05:42.848Z,88.30
2022-10-28T05:08:10.874Z,87.70
2022-10-28T05:10:38.844Z,87.80
2022-10-28T05:13:06.796Z,87.80
2022-10-28T05:15:34.739Z,86.90
2022-10-28T05:18:02.693Z,86.60
2022-10-28T05:20:30.655Z,86.60
2022-10-28T05:23:00.057Z,86.90
2022-10-28T05:25:28.182Z,87.00
2022-10-28T05:27:59.576Z,87.60
2022-10-28T05:30:28.285Z,88.60
2022-10-28T05:33:01.487Z,88.50
2022-10-28T05:35:29.819Z,89.20
2022-10-28T05:37:59.282Z,90.00
2022-10-28T05:40:27.291Z,90.30
2022-10-28T05:42:55.449Z,90.40
2022-10-28T05:45:23.609Z,90.80
2022-10-28T05:47:52.214Z,90.60
2022-10-28T05:50:21.195Z,90.20
2022-10-28T05:52:50.536Z,90.20
2022-10-28T05:55:21.502Z,89.80
2022-10-28T05:57:50.614Z,90.10
2022-10-28T06:00:22.879Z,90.40
2022-10-28T06:02:51.055Z,90.30
2022-10-28T06:05:19.241Z,90.40
2022-10-28T06:07:47.173Z,90.30
2022-10-28T06:10:15.163Z,90.80
2022-10-28T06:12:42.884Z,90.10
2022-10-28T06:15:11.000Z,88.90
2022-10-28T06:17:38.940Z,88.30
2022-10-28T06:20:07.640Z,88.20
2022-10-28T06:22:35.567Z,89.00
2022-10-28T06:25:04.074Z,88.70
2022-10-28T06:27:32.027Z,87.90
2022-10-28T06:30:01.336Z,88.30
2022-10-28T06:32:29.249Z,88.40
2022-10-28T06:34:57.190Z,88.50
2022-10-28T06:37:25.139Z,88.10
2022-10-28T06:39:53.139Z,87.80
2022-10-28T06:42:21.119Z,88.00
2022-10-28T06:44:49.471Z,88.60
2022-10-28T06:47:20.324Z,89.30
2022-10-28T06:49:48.326Z,90.00
2022-10-28T06:52:16.326Z,89.50
2022-10-28T06:54:44.318Z,88.20
2022-10-28T06:57:12.541Z,88.00
2022-10-28T06:59:40.540Z,87.50
2022-10-28T07:02:10.890Z,86.00
2022-10-28T07:04:40.293Z,84.30
2022-10-28T07:07:08.215Z,82.00
2022-10-28T07:09:39.430Z,79.70
2022-10-28T07:12:08.546Z,79.60
2022-10-28T07:14:56.447Z,77.30
2022-10-28T07:17:24.479Z,76.80
2022-10-28T07:19:53.790Z,74.70
2022-10-28T07:22:25.503Z,73.70
2022-10-28T07:24:53.772Z,72.40
2022-10-28T07:27:21.771Z,71.80
2022-10-28T07:29:49.727Z,71.50
2022-10-28T07:32:17.686Z,69.40
2022-10-28T07:34:45.674Z,68.10
2022-10-28T07:40:23.176Z,65.40
2022-10-28T07:42:51.848Z,64.20
2022-10-28T07:45:20.569Z,63.70
2022-10-28T07:47:48.538Z,62.40
2022-10-28T07:50:16.478Z,61.90
2022-10-28T07:52:46.003Z,62.20
2022-10-28T07:55:13.939Z,61.20
2022-10-28T07:57:41.946Z,61.20
2022-10-28T08:00:11.031Z,60.90
2022-10-28T08:02:39.491Z,60.90
2022-10-28T08:05:08.220Z,61.50
2022-10-28T08:07:38.574Z,60.90
2022-10-28T08:10:09.384Z,60.40
2022-10-28T08:12:37.433Z,59.60
2022-10-28T08:15:06.345Z,58.40
2022-10-28T08:17:34.277Z,58.60
2022-10-28T08:20:02.252Z,58.70
2022-10-28T08:22:30.212Z,58.90
2022-10-28T08:24:58.136Z,60.20
2022-10-28T08:27:27.423Z,61.10
2022-10-28T08:29:55.364Z,61.50
2022-10-28T08:32:23.372Z,61.90
2022-10-28T08:34:51.334Z,62.60
2022-10-28T08:37:19.330Z,62.50
2022-10-28T08:39:47.361Z,63.60
2022-10-28T08:42:31.597Z,64.10
2022-10-28T08:45:16.746Z,64.00
2022-10-28T08:47:55.867Z,61.10
2022-10-28T08:50:27.679Z,61.80
2022-10-28T08:52:58.005Z,62.30
2022-10-28T08:55:31.682Z,62.90
2022-10-28T08:58:07.340Z,63.70
2022-10-28T09:00:38.222Z,62.90
2022-10-28T09:03:18.100Z,62.00
2022-10-28T09:05:49.943Z,60.50
2022-10-28T09:08:23.636Z,59.60
2022-10-28T09:11:07.614Z,59.50
2022-10-28T09:13:50.925Z,58.50
2022-10-28T09:16:31.155Z,61.00
2022-10-28T09:19:03.934Z,62.60
2022-10-28T09:21:34.406Z,63.10
2022-10-28T09:24:13.952Z,63.80
2022-10-28T09:26:50.352Z,64.40
2022-10-28T09:29:37.236Z,62.90
2022-10-28T09:32:18.686Z,61.60
2022-10-28T09:34:50.856Z,62.30
2022-10-28T09:37:23.246Z,59.90
2022-10-28T09:39:54.084Z,59.50
2022-10-28T09:42:26.694Z,60.00
2022-10-28T09:44:59.498Z,60.10
2022-10-28T09:47:33.543Z,60.50
2022-10-28T09:50:05.245Z,60.30
2022-10-28T09:52:40.062Z,57.50
2022-10-28T09:55:16.150Z,55.80
2022-10-28T09:57:44.507Z,52.50
2022-10-28T10:00:14.684Z,51.30
2022-10-28T10:03:42.734Z,46.90
2022-10-28T10:06:39.996Z,45.30
2022-10-28T10:09:27.419Z,48.50
2022-10-28T10:12:03.747Z,50.50
2022-10-28T10:14:36.225Z,51.70
2022-10-28T10:17:07.276Z,50.70
2022-10-28T10:20:00.158Z,49.20
2022-10-28T10:22:42.857Z,49.60
2022-10-28T10:25:30.154Z,51.50
2022-10-28T10:28:01.579Z,54.40
2022-10-28T10:30:32.752Z,57.90
2022-10-28T10:33:02.724Z,58.10
2022-10-28T10:35:33.559Z,58.30
2022-10-28T10:38:05.553Z,58.50
2022-10-28T10:40:36.213Z,59.50
2022-10-28T10:43:24.506Z,59.30
2022-10-28T10:45:54.608Z,59.70
2022-10-28T10:48:22.513Z,60.20
2022-10-28T10:50:51.688Z,56.70
2022-10-28T10:53:24.657Z,49.60
2022-10-28T10:55:58.560Z,49.50
2022-10-28T10:58:29.058Z,51.10
2022-10-28T11:00:59.562Z,52.00
2022-10-28T11:03:30.629Z,52.00
2022-10-28T11:06:21.879Z,53.70
2022-10-28T11:08:55.514Z,53.60
2022-10-28T11:11:32.531Z,53.50
2022-10-28T11:14:07.032Z,52.90
2022-10-28T11:16:47.168Z,51.50
2022-10-28T11:19:21.578Z,50.20
2022-10-28T11:21:59.926Z,49.30
2022-10-28T11:24:49.376Z,49.50
2022-10-28T11:27:28.858Z,49.70
2022-10-28T11:30:00.031Z,52.10
2022-10-28T11:32:54.717Z,52.80
2022-10-28T11:35:57.852Z,54.60
2022-10-28T11:38:45.907Z,55.70
2022-10-28T11:41:23.255Z,55.90
2022-10-28T11:43:55.098Z,56.10
2022-10-28T11:46:39.642Z,56.00
2022-10-28T11:49:41.904Z,55.70
2022-10-28T11:52:21.141Z,55.30
2022-10-28T11:54:58.723Z,54.40
2022-10-28T11:57:37.880Z,51.70
2022-10-28T12:00:24.727Z,52.30
2022-10-28T12:03:06.233Z,52.10
2022-10-28T12:05:41.077Z,47.10
2022-10-28T12:08:22.518Z,46.30
2022-10-28T12:11:13.545Z,45.00
2022-10-28T12:13:51.771Z,43.20
2022-10-28T12:16:27.201Z,42.90
2022-10-28T12:19:00.098Z,43.50
2022-10-28T12:24:13.040Z,43.00
2022-10-28T12:26:44.887Z,40.80
2022-10-28T12:29:20.290Z,39.40
2022-10-28T12:31:53.972Z,40.20
2022-10-28T12:34:29.306Z,39.70
2022-10-28T12:37:03.239Z,40.10
2022-10-28T12:39:35.723Z,39.40
2022-10-28T12:42:10.661Z,39.30
2022-10-28T12:44:52.950Z,40.60
2022-10-28T12:47:27.119Z,40.60
2022-10-28T12:50:04.012Z,39.40
2022-10-28T12:52:41.359Z,37.30
2022-10-28T12:55:25.204Z,38.40
2022-10-28T12:58:00.052Z,39.90
2022-10-28T13:00:32.985Z,40.20
2022-10-28T13:03:03.888Z,38.90
2022-10-28T13:05:38.139Z,38.00
2022-10-28T13:08:33.727Z,38.30
2022-10-28T13:11:26.895Z,39.20
2022-10-28T13:14:00.246Z,37.90
2022-10-28T13:16:55.003Z,36.50
2022-10-28T13:19:50.980Z,35.30
2022-10-28T13:22:44.984Z,32.50
2022-10-28T13:25:27.071Z,31.60
2022-10-28T13:27:58.836Z,31.00
2022-10-28T13:30:28.077Z,29.60
2022-10-28T13:33:05.952Z,29.20
2022-10-28T13:35:34.361Z,29.20
2022-10-28T13:38:03.468Z,29.90
2022-10-28T13:41:09.897Z,30.30
2022-10-28T13:44:23.911Z,30.60
2022-10-28T13:47:27.085Z,30.70
2022-10-28T13:50:33.437Z,30.50
2022-10-28T13:53:40.842Z,30.50
2022-10-28T13:56:45.910Z,30.50
2022-10-28T13:59:30.276Z,30.20
2022-10-28T14:02:32.388Z,30.20
2022-10-28T14:05:00.353Z,31.70
2022-10-28T14:07:31.853Z,35.00
2022-10-28T14:10:20.030Z,36.00
2022-10-28T14:12:51.278Z,34.80
2022-10-28T14:15:38.543Z,34.50
2022-10-28T14:21:07.159Z,31.90
2022-10-28T14:24:10.233Z,31.20
2022-10-28T14:27:27.000Z,29.90
2022-10-28T14:30:16.772Z,31.10
2022-10-28T14:32:46.219Z,32.00
2022-10-28T14:35:26.399Z,33.80
2022-10-28T14:38:27.666Z,33.80
2022-10-28T14:41:07.443Z,33.80
2022-10-28T14:43:48.175Z,33.00
2022-10-28T14:46:29.845Z,34.20
2022-10-28T14:48:59.050Z,34.10
2022-10-28T14:51:29.125Z,33.10
2022-10-28T14:54:01.424Z,33.50
2022-10-28T14:56:32.325Z,33.80
2022-10-28T14:59:05.489Z,34.50
2022-10-28T15:01:52.239Z,33.30
2022-10-28T15:04:21.859Z,33.30
2022-10-28T15:06:52.152Z,33.40
2022-10-28T15:09:22.655Z,33.80
2022-10-28T15:11:55.866Z,36.20
2022-10-28T15:14:36.715Z,40.00
2022-10-28T15:17:16.416Z,40.60
2022-10-28T15:19:45.632Z,42.30
2022-10-28T15:22:16.984Z,46.20
2022-10-28T15:24:57.404Z,49.90
2022-10-28T15:27:28.921Z,52.30
2022-10-28T15:29:57.921Z,54.00
2022-10-28T15:32:31.869Z,56.70
2022-10-28T15:34:59.955Z,58.10
2022-10-28T15:37:31.082Z,60.90
2022-10-28T15:40:21.568Z,62.20
2022-10-28T15:42:57.973Z,63.80
2022-10-28T15:45:28.102Z,65.40
2022-10-28T15:47:57.173Z,66.60
2022-10-28T15:50:29.585Z,67.60
2022-10-28T15:53:21.982Z,68.60
2022-10-28T15:56:10.268Z,69.30
2022-10-28T15:58:41.741Z,70.30
2022-10-28T16:01:11.893Z,71.30
2022-10-28T16:03:45.426Z,71.90
2022-10-28T16:06:25.889Z,72.30
2022-10-28T16:09:01.855Z,72.80
2022-10-28T16:11:30.766Z,72.80
2022-10-28T16:14:03.779Z,73.90
2022-10-28T16:16:32.573Z,75.80
2022-10-28T16:19:07.856Z,76.90
2022-10-28T16:21:37.050Z,77.70
2022-10-28T16:24:05.220Z,78.60
2022-10-28T16:26:33.579Z,80.20
2022-10-28T16:29:02.812Z,81.30
2022-10-28T16:31:31.907Z,82.20
2022-10-28T16:34:00.446Z,82.80
2022-10-28T16:36:28.834Z,83.20
2022-10-28T16:38:56.826Z,84.00
2022-10-28T16:41:25.356Z,85.20
2022-10-28T16:43:53.890Z,86.00
2022-10-28T16:46:23.238Z,86.50
2022-10-28T16:48:51.166Z,86.70
2022-10-28T16:51:19.586Z,87.10
2022-10-28T16:53:49.594Z,87.30
2022-10-28T16:56:18.576Z,87.50
2022-10-28T16:58:46.811Z,87.80
2022-10-28T17:01:23.547Z,87.90
2022-10-28T17:03:51.544Z,88.40
2022-10-28T17:06:19.448Z,89.30
2022-10-28T17:09:02.305Z,90.70
2022-10-28T17:14:04.132Z,92.30
2022-10-28T17:16:34.439Z,93.10
2022-10-28T17:19:03.173Z,93.70
2022-10-28T17:21:31.122Z,93.80
2022-10-28T17:23:59.104Z,94.00
2022-10-28T17:26:27.037Z,94.40
2022-10-28T17:28:54.961Z,94.70
2022-10-28T17:31:25.117Z,95.10
2022-10-28T17:33:56.121Z,95.40
2022-10-28T17:36:24.269Z,95.30
2022-10-28T17:38:52.178Z,95.50
2022-10-28T17:41:20.384Z,95.60
2022-10-28T17:43:48.336Z,96.00
2022-10-28T17:46:16.328Z,96.10
2022-10-28T17:48:44.294Z,96.30
2022-10-28T17:51:14.107Z,96.00
2022-10-28T17:53:42.096Z,96.80
2022-10-28T17:56:10.432Z,96.70
2022-10-28T17:58:38.415Z,98.10
2022-10-28T18:01:08.526Z,99.90
2022-10-28T18:03:38.989Z,99.90
2022-10-28T18:06:10.498Z,99.90
2022-10-28T18:08:41.951Z,99.90
2022-10-28T18:11:11.809Z,99.90
2022-10-28T18:13:41.275Z,99.90
2022-10-28T18:16:11.756Z,99.90
2022-10-28T18:18:42.473Z,99.90
2022-10-28T18:21:11.195Z,99.90
2022-10-28T18:23:41.537Z,99.70
2022-10-28T18:26:12.505Z,99.80
2022-10-28T18:28:41.999Z,99.90
2022-10-28T18:31:12.717Z,99.80
2022-10-28T18:33:41.153Z,99.90
2022-10-28T18:36:12.610Z,99.90
2022-10-28T18:38:42.560Z,99.90
2022-10-28T18:41:11.938Z,99.90
2022-10-28T18:43:40.124Z,99.90
2022-10-28T18:46:08.412Z,99.90
2022-10-28T18:48:36.711Z,99.90
2022-10-28T18:51:07.337Z,99.90
2022-10-28T18:53:37.543Z,99.90
2022-10-28T18:56:08.708Z,99.90
2022-10-28T18:58:36.646Z,99.90
2022-10-28T19:01:06.536Z,99.90
2022-10-28T19:03:34.528Z,99.90
2022-10-28T19:06:03.695Z,99.90
2022-10-28T19:08:31.881Z,99.90
2022-10-28T19:11:00.847Z,99.90
2022-10-28T19:13:30.280Z,99.90
2022-10-28T19:15:59.509Z,99.90
2022-10-28T19:18:27.994Z,99.90
2022-10-28T19:21:04.097Z,99.90
2022-10-28T19:23:32.750Z,99.90
2022-10-28T19:26:01.326Z,99.90
2022-10-28T19:28:30.971Z,99.90
2022-10-28T19:31:02.921Z,99.90
2022-10-28T19:33:32.199Z,99.90
2022-10-28T19:36:04.957Z,99.90
2022-10-28T19:38:34.173Z,99.90
2022-10-28T19:41:03.960Z,99.90
2022-10-28T19:43:33.362Z,99.90
2022-10-28T19:46:10.217Z,99.90
2022-10-28T19:48:39.356Z,99.90
2022-10-28T19:51:07.704Z,99.90
2022-10-28T19:53:35.940Z,99.90
2022-10-28T19:56:05.545Z,99.90
2022-10-28T19:58:35.006Z,99.90
2022-10-28T20:01:05.628Z,99.90
2022-10-28T20:03:35.183Z,99.90
2022-10-28T20:06:08.799Z,99.90
2022-10-28T20:08:37.279Z,99.90
2022-10-28T20:11:07.090Z,99.90
2022-10-28T20:13:37.120Z,99.90
2022-10-28T20:16:07.424Z,99.90
2022-10-28T20:18:35.843Z,99.90
2022-10-28T20:21:05.881Z,99.90
2022-10-28T20:23:35.568Z,99.90
2022-10-28T20:26:04.358Z,99.90
2022-10-28T20:28:32.567Z,99.90
2022-10-28T20:31:03.289Z,99.90
2022-10-28T20:33:31.992Z,99.90
2022-10-28T20:36:00.442Z,99.90
2022-10-28T20:38:29.249Z,99.90
2022-10-28T20:40:59.012Z,99.90
2022-10-28T20:43:28.448Z,99.90
2022-10-28T20:45:58.683Z,99.90
2022-10-28T20:48:29.145Z,99.90
2022-10-28T20:50:58.916Z,99.90
2022-10-28T20:53:28.955Z,99.90
2022-10-28T20:55:58.258Z,99.90
2022-10-28T20:58:28.997Z,99.90
2022-10-28T21:01:03.573Z,99.90
2022-10-28T21:03:32.917Z,99.90
2022-10-28T21:06:02.821Z,99.90
2022-10-28T21:08:31.110Z,99.90
2022-10-28T21:11:03.062Z,99.90
2022-10-28T21:13:31.194Z,99.90
2022-10-28T21:15:59.506Z,99.90
2022-10-28T21:18:27.449Z,99.90
2022-10-28T21:20:58.912Z,99.90
2022-10-28T21:23:27.640Z,99.90
2022-10-28T21:25:56.086Z,99.90
2022-10-28T21:28:24.672Z,99.90
2022-10-28T21:30:52.597Z,99.90
2022-10-28T21:33:20.536Z,99.90
2022-10-28T21:35:57.802Z,99.90
2022-10-28T21:38:25.920Z,99.90
2022-10-28T21:41:01.328Z,99.90
2022-10-28T21:43:30.216Z,99.90
2022-10-28T21:45:58.281Z,99.90
2022-10-28T21:48:28.525Z,99.90
2022-10-28T21:50:59.448Z,99.90
2022-10-28T21:53:28.311Z,99.90
2022-10-28T21:56:03.383Z,99.90
2022-10-28T21:58:31.455Z,99.90
2022-10-28T22:01:06.917Z,99.90
2022-10-28T22:03:34.914Z,99.90
2022-10-28T22:06:04.517Z,99.90
2022-10-28T22:08:32.911Z,99.90
2022-10-28T22:11:02.457Z,99.90
2022-10-28T22:13:30.634Z,99.90
2022-10-28T22:15:59.799Z,99.90
2022-10-28T22:18:28.013Z,99.90
2022-10-28T22:20:56.090Z,99.90
2022-10-28T22:23:25.380Z,99.90
2022-10-28T22:25:53.323Z,99.90
2022-10-28T22:28:21.281Z,99.90
2022-10-28T22:30:49.184Z,99.90
2022-10-28T22:33:17.125Z,99.90
2022-10-28T22:35:45.056Z,99.90
2022-10-28T22:38:13.024Z,99.90
2022-10-28T22:40:42.313Z,99.90
2022-10-28T22:43:10.217Z,99.90
2022-10-28T22:45:38.190Z,99.90
2022-10-28T22:48:06.545Z,99.90
2022-10-28T22:50:34.467Z,99.90
2022-10-28T22:53:02.433Z,99.90
2022-10-28T22:55:30.479Z,99.90
2022-10-28T22:57:59.804Z,99.90
2022-10-28T23:00:27.760Z,99.90
2022-10-28T23:02:57.749Z,99.90
2022-10-28T23:05:26.029Z,99.90
2022-10-28T23:07:54.278Z,99.90
2022-10-28T23:10:22.319Z,99.90
2022-10-28T23:12:56.405Z,99.90
2022-10-28T23:15:26.277Z,99.90
2022-10-28T23:17:54.923Z,99.90
2022-10-28T23:20:25.128Z,99.90
2022-10-28T23:22:56.266Z,99.90
2022-10-28T23:25:24.268Z,99.90
2022-10-28T23:27:52.442Z,99.90
2022-10-28T23:30:20.921Z,99.90
2022-10-28T23:32:50.267Z,99.90
2022-10-28T23:35:18.462Z,99.90
2022-10-28T23:37:46.396Z,99.90
2022-10-28T23:40:14.466Z,99.90
2022-10-28T23:42:42.458Z,99.90
2022-10-28T23:45:11.080Z,99.90
2022-10-28T23:47:39.009Z,99.90
2022-10-28T23:50:10.906Z,99.90
2022-10-28T23:52:38.819Z,99.90
2022-10-28T23:55:07.736Z,99.90
2022-10-28T23:57:35.641Z,99.90
